National Park, NJ (08063)

2:23 PM EDT on July 04, 2015 (GMT -0400)
Westville NJ | | Change Station
CLOSE
Current Station
Personal Weather Station
Location: Westville, NJ
Elevation: 36 ft
Nearby Weather Stations

Elev 36 ft 39.86 °N, 75.13 °W | Updated 10 minutes ago

Light Rain
Light Rain
73.8 °F
Feels Like 74 °F
N
4.2
Wind Variable Wind from ESE

Today
High -- | Low -- °F
--% Chance of Precip.
Yesterday
High -- | Low -- °F
Precip. -- in
5:37 AM 8:32 PM
Waning Gibbous, 91% visible
Pressure 29.93 in
Visibility 10.0 miles
Clouds Scattered Clouds 2500 ft
Mostly Cloudy 6500 ft
Overcast 10000 ft
Heat Index 74 °F
Dew Point 67 °F
Humidity 79%
Rainfall 0.00 in
Snow Depth Not available.
UV 3 out of 12
Pollen .50 out of 12
Air Quality Not available.
Flu Activity Not available.
METAR KPHL 041754Z 06008KT 10SM -RA SCT025 BKN065 OVC100 23/18 A2993 RMK AO2 RAE26B45 SLP133 P0001 60002 T02330183 10250 20217 50002 $

More Conditions Fewer Conditions

Pressure 29.93 in
Visibility 10.0 miles
Clouds Scattered Clouds 2500 ft
Mostly Cloudy 6500 ft
Overcast 10000 ft
Heat Index 74 °F
Dew Point 67 °F
Humidity 79%
Rainfall 0.00 in
Snow Depth Not available.
UV 3 out of 12
Pollen .50 out of 12
Air Quality Not available.
Flu Activity Not available.
METAR KPHL 041754Z 06008KT 10SM -RA SCT025 BKN065 OVC100 23/18 A2993 RMK AO2 RAE26B45 SLP133 P0001 60002 T02330183 10250 20217 50002 $

More Conditions Fewer Conditions

Nowcast | as of 2:05 PM EDT on July 4, 2015

At 2 PM...a band of showers was located in central and southern New Jersey and northern Delaware near the Interstate 95 corridor. These showers will continue to move eastward toward the coast during the mid afternoon. Showers will become more isolated and lighter from west to east through 4 PM. Additional rainfall amounts will be less than one-tenth inch. Temperatures are in the upper 70s prior to the rain but they will drop several degrees once the rain begins. Temperatures will then remain steady in the low to mid 70s.

×

10-Day Weather Forecast

×

Almanac

Astronomy

Jul. 04, 2015 Rise Set
Actual Time
Civil Twilight
Nautical Twilight
Astronomical Twilight
Moon
Length of Visible Light
Length of Day
Tomorrow will be .
, % of the Moon is Illuminated

Today's Extremes

State Highs State Lows

Community

WunderPhotos

Upload Photos

1,835,032 photos uploaded!

WunderBlogs® & News

Nearby

Air Quality

  Air Quality AQ Index Pollutant
Not available.

Snow Depth

Station Depth Elevation

Earthquake Activity

City Distance Mag. Time & Date
Minimum magnitude displayed is 2.5.

Coastal Water Temperatures

Place Temperature

Stations

Nearby Weather Stations

Station Location Temp. Windchill Dew Point Humidity Wind Precip. Elev Updated Type